sensor_id;sensor_type;location;lat;lon;timestamp;P1;durP1;ratioP1;P2;durP2;ratioP2
22652;SDS011;11493;43.344;26.226;2023-02-01T00:00:52;8.52;;;6.50;;
22652;SDS011;11493;43.344;26.226;2023-02-01T00:03:19;9.90;;;7.22;;
22652;SDS011;11493;43.344;26.226;2023-02-01T00:05:54;9.10;;;7.45;;
22652;SDS011;11493;43.344;26.226;2023-02-01T00:08:22;8.55;;;6.55;;
22652;SDS011;11493;43.344;26.226;2023-02-01T00:10:57;10.10;;;6.68;;
22652;SDS011;11493;43.344;26.226;2023-02-01T00:13:25;12.38;;;6.85;;
22652;SDS011;11493;43.344;26.226;2023-02-01T00:16:02;6.72;;;6.00;;
22652;SDS011;11493;43.344;26.226;2023-02-01T00:18:30;11.05;;;6.38;;
22652;SDS011;11493;43.344;26.226;2023-02-01T00:20:57;7.43;;;6.35;;
22652;SDS011;11493;43.344;26.226;2023-02-01T00:23:24;8.63;;;6.20;;
22652;SDS011;11493;43.344;26.226;2023-02-01T00:25:52;7.13;;;5.93;;
22652;SDS011;11493;43.344;26.226;2023-02-01T00:28:18;10.27;;;6.43;;
22652;SDS011;11493;43.344;26.226;2023-02-01T00:30:45;8.23;;;6.63;;
22652;SDS011;11493;43.344;26.226;2023-02-01T00:33:12;9.07;;;6.50;;
22652;SDS011;11493;43.344;26.226;2023-02-01T00:35:39;14.95;;;7.25;;
22652;SDS011;11493;43.344;26.226;2023-02-01T00:38:06;8.65;;;6.25;;
22652;SDS011;11493;43.344;26.226;2023-02-01T00:40:33;6.85;;;6.15;;
22652;SDS011;11493;43.344;26.226;2023-02-01T00:43:00;7.32;;;5.97;;
22652;SDS011;11493;43.344;26.226;2023-02-01T00:45:27;7.10;;;6.18;;
22652;SDS011;11493;43.344;26.226;2023-02-01T00:47:53;11.57;;;5.28;;
22652;SDS011;11493;43.344;26.226;2023-02-01T00:50:20;8.73;;;6.03;;
22652;SDS011;11493;43.344;26.226;2023-02-01T00:52:47;9.73;;;6.50;;
22652;SDS011;11493;43.344;26.226;2023-02-01T00:55:14;9.90;;;6.40;;
22652;SDS011;11493;43.344;26.226;2023-02-01T00:57:41;7.28;;;6.55;;
22652;SDS011;11493;43.344;26.226;2023-02-01T01:00:08;11.80;;;7.82;;
22652;SDS011;11493;43.344;26.226;2023-02-01T01:02:37;10.82;;;6.63;;
22652;SDS011;11493;43.344;26.226;2023-02-01T01:05:04;12.23;;;7.68;;
22652;SDS011;11493;43.344;26.226;2023-02-01T01:07:31;17.95;;;8.20;;
22652;SDS011;11493;43.344;26.226;2023-02-01T01:09:58;13.48;;;7.38;;
22652;SDS011;11493;43.344;26.226;2023-02-01T01:12:25;8.18;;;7.03;;
22652;SDS011;11493;43.344;26.226;2023-02-01T01:14:52;9.13;;;7.28;;
22652;SDS011;11493;43.344;26.226;2023-02-01T01:17:19;8.02;;;6.25;;
22652;SDS011;11493;43.344;26.226;2023-02-01T01:19:46;10.18;;;7.07;;
22652;SDS011;11493;43.344;26.226;2023-02-01T01:22:17;9.43;;;7.07;;
22652;SDS011;11493;43.344;26.226;2023-02-01T01:24:44;12.60;;;7.38;;
22652;SDS011;11493;43.344;26.226;2023-02-01T01:27:11;8.50;;;6.47;;
22652;SDS011;11493;43.344;26.226;2023-02-01T01:29:38;9.50;;;6.75;;
22652;SDS011;11493;43.344;26.226;2023-02-01T01:32:05;10.05;;;6.80;;
22652;SDS011;11493;43.344;26.226;2023-02-01T01:34:32;11.50;;;7.18;;
22652;SDS011;11493;43.344;26.226;2023-02-01T01:36:59;12.23;;;7.15;;
22652;SDS011;11493;43.344;26.226;2023-02-01T01:39:25;12.82;;;7.05;;
22652;SDS011;11493;43.344;26.226;2023-02-01T01:41:52;7.30;;;6.57;;
22652;SDS011;11493;43.344;26.226;2023-02-01T01:47:33;15.82;;;7.32;;
22652;SDS011;11493;43.344;26.226;2023-02-01T01:50:04;7.72;;;6.53;;
22652;SDS011;11493;43.344;26.226;2023-02-01T01:52:34;10.65;;;7.47;;
22652;SDS011;11493;43.344;26.226;2023-02-01T01:55:03;9.13;;;7.20;;
22652;SDS011;11493;43.344;26.226;2023-02-01T01:57:35;14.15;;;7.95;;
22652;SDS011;11493;43.344;26.226;2023-02-01T02:00:09;16.60;;;8.50;;
22652;SDS011;11493;43.344;26.226;2023-02-01T02:02:43;9.80;;;7.50;;
22652;SDS011;11493;43.344;26.226;2023-02-01T02:05:13;8.25;;;6.93;;
22652;SDS011;11493;43.344;26.226;2023-02-01T02:07:43;13.63;;;7.60;;
22652;SDS011;11493;43.344;26.226;2023-02-01T02:10:14;9.38;;;7.45;;
22652;SDS011;11493;43.344;26.226;2023-02-01T02:12:44;10.40;;;7.45;;
22652;SDS011;11493;43.344;26.226;2023-02-01T02:15:14;10.68;;;6.38;;
22652;SDS011;11493;43.344;26.226;2023-02-01T02:18:01;13.38;;;7.30;;
22652;SDS011;11493;43.344;26.226;2023-02-01T02:38:23;11.73;;;6.85;;
22652;SDS011;11493;43.344;26.226;2023-02-01T02:43:37;7.88;;;6.95;;
22652;SDS011;11493;43.344;26.226;2023-02-01T02:46:37;11.73;;;7.55;;
22652;SDS011;11493;43.344;26.226;2023-02-01T02:49:35;9.27;;;7.38;;
22652;SDS011;11493;43.344;26.226;2023-02-01T02:52:11;10.88;;;8.10;;
22652;SDS011;11493;43.344;26.226;2023-02-01T02:55:20;14.73;;;8.50;;
22652;SDS011;11493;43.344;26.226;2023-02-01T02:57:48;11.38;;;8.65;;
22652;SDS011;11493;43.344;26.226;2023-02-01T03:00:35;12.77;;;8.85;;
22652;SDS011;11493;43.344;26.226;2023-02-01T03:03:22;12.13;;;9.38;;
22652;SDS011;11493;43.344;26.226;2023-02-01T03:06:14;15.40;;;9.55;;
22652;SDS011;11493;43.344;26.226;2023-02-01T03:08:45;13.27;;;9.50;;
22652;SDS011;11493;43.344;26.226;2023-02-01T03:11:13;11.95;;;8.55;;
22652;SDS011;11493;43.344;26.226;2023-02-01T03:13:51;13.98;;;9.13;;
22652;SDS011;11493;43.344;26.226;2023-02-01T03:16:22;12.27;;;7.88;;
22652;SDS011;11493;43.344;26.226;2023-02-01T03:19:02;11.43;;;9.00;;
22652;SDS011;11493;43.344;26.226;2023-02-01T03:21:40;10.13;;;8.27;;
22652;SDS011;11493;43.344;26.226;2023-02-01T03:24:19;16.40;;;8.40;;
22652;SDS011;11493;43.344;26.226;2023-02-01T03:30:20;9.35;;;7.30;;
22652;SDS011;11493;43.344;26.226;2023-02-01T03:32:50;12.77;;;8.23;;
22652;SDS011;11493;43.344;26.226;2023-02-01T03:37:56;12.75;;;7.80;;
22652;SDS011;11493;43.344;26.226;2023-02-01T03:40:32;10.57;;;7.38;;
22652;SDS011;11493;43.344;26.226;2023-02-01T03:43:03;9.48;;;7.28;;
22652;SDS011;11493;43.344;26.226;2023-02-01T03:45:34;12.70;;;7.28;;
22652;SDS011;11493;43.344;26.226;2023-02-01T03:48:07;10.93;;;7.55;;
22652;SDS011;11493;43.344;26.226;2023-02-01T03:50:35;8.57;;;6.95;;
22652;SDS011;11493;43.344;26.226;2023-02-01T03:53:13;7.13;;;6.47;;
22652;SDS011;11493;43.344;26.226;2023-02-01T03:55:44;7.28;;;6.30;;
22652;SDS011;11493;43.344;26.226;2023-02-01T03:58:14;10.98;;;7.05;;
22652;SDS011;11493;43.344;26.226;2023-02-01T04:00:44;11.65;;;8.40;;
22652;SDS011;11493;43.344;26.226;2023-02-01T04:03:16;12.27;;;8.15;;
22652;SDS011;11493;43.344;26.226;2023-02-01T04:05:44;10.60;;;7.00;;
22652;SDS011;11493;43.344;26.226;2023-02-01T04:08:11;7.18;;;5.82;;
22652;SDS011;11493;43.344;26.226;2023-02-01T04:10:38;7.85;;;6.65;;
22652;SDS011;11493;43.344;26.226;2023-02-01T04:13:05;7.07;;;5.90;;
22652;SDS011;11493;43.344;26.226;2023-02-01T04:15:32;9.63;;;6.50;;
22652;SDS011;11493;43.344;26.226;2023-02-01T04:18:01;11.68;;;5.95;;
22652;SDS011;11493;43.344;26.226;2023-02-01T04:20:28;6.40;;;5.78;;
22652;SDS011;11493;43.344;26.226;2023-02-01T04:22:55;5.45;;;4.95;;
22652;SDS011;11493;43.344;26.226;2023-02-01T04:25:22;5.63;;;4.43;;
22652;SDS011;11493;43.344;26.226;2023-02-01T04:27:49;6.05;;;5.40;;
22652;SDS011;11493;43.344;26.226;2023-02-01T04:30:16;8.70;;;5.22;;
22652;SDS011;11493;43.344;26.226;2023-02-01T04:32:43;5.85;;;4.93;;
22652;SDS011;11493;43.344;26.226;2023-02-01T04:35:10;6.10;;;5.60;;
22652;SDS011;11493;43.344;26.226;2023-02-01T04:37:38;6.22;;;4.35;;
22652;SDS011;11493;43.344;26.226;2023-02-01T04:40:05;7.00;;;5.53;;
22652;SDS011;11493;43.344;26.226;2023-02-01T04:42:32;9.52;;;5.65;;
22652;SDS011;11493;43.344;26.226;2023-02-01T04:44:59;9.20;;;5.15;;
22652;SDS011;11493;43.344;26.226;2023-02-01T04:47:26;9.77;;;5.25;;
22652;SDS011;11493;43.344;26.226;2023-02-01T04:49:53;10.10;;;6.38;;
22652;SDS011;11493;43.344;26.226;2023-02-01T04:52:20;11.50;;;6.68;;
22652;SDS011;11493;43.344;26.226;2023-02-01T04:54:47;10.15;;;7.25;;
22652;SDS011;11493;43.344;26.226;2023-02-01T04:57:14;10.90;;;7.13;;
22652;SDS011;11493;43.344;26.226;2023-02-01T04:59:41;10.27;;;7.95;;
22652;SDS011;11493;43.344;26.226;2023-02-01T05:02:08;12.30;;;8.43;;
22652;SDS011;11493;43.344;26.226;2023-02-01T05:04:35;10.57;;;7.53;;
22652;SDS011;11493;43.344;26.226;2023-02-01T05:07:02;8.65;;;6.78;;
22652;SDS011;11493;43.344;26.226;2023-02-01T05:09:28;15.30;;;7.35;;
22652;SDS011;11493;43.344;26.226;2023-02-01T05:11:55;12.02;;;5.88;;
22652;SDS011;11493;43.344;26.226;2023-02-01T05:14:40;11.90;;;6.40;;
22652;SDS011;11493;43.344;26.226;2023-02-01T05:17:07;10.63;;;7.40;;
22652;SDS011;11493;43.344;26.226;2023-02-01T05:19:35;7.88;;;6.47;;
22652;SDS011;11493;43.344;26.226;2023-02-01T05:22:01;9.13;;;6.70;;
22652;SDS011;11493;43.344;26.226;2023-02-01T05:24:29;9.13;;;6.80;;
22652;SDS011;11493;43.344;26.226;2023-02-01T05:26:56;7.95;;;6.43;;
22652;SDS011;11493;43.344;26.226;2023-02-01T05:29:23;15.77;;;8.85;;
22652;SDS011;11493;43.344;26.226;2023-02-01T05:31:50;14.77;;;9.15;;
22652;SDS011;11493;43.344;26.226;2023-02-01T05:34:17;10.80;;;6.70;;
22652;SDS011;11493;43.344;26.226;2023-02-01T05:36:44;12.85;;;6.40;;
22652;SDS011;11493;43.344;26.226;2023-02-01T05:39:11;9.05;;;5.55;;
22652;SDS011;11493;43.344;26.226;2023-02-01T05:41:38;9.98;;;6.40;;
22652;SDS011;11493;43.344;26.226;2023-02-01T05:44:05;10.23;;;6.47;;
22652;SDS011;11493;43.344;26.226;2023-02-01T05:46:34;16.60;;;6.97;;
22652;SDS011;11493;43.344;26.226;2023-02-01T05:49:02;11.52;;;7.88;;
22652;SDS011;11493;43.344;26.226;2023-02-01T05:51:30;12.57;;;9.63;;
22652;SDS011;11493;43.344;26.226;2023-02-01T05:53:57;18.38;;;10.63;;
22652;SDS011;11493;43.344;26.226;2023-02-01T05:56:23;10.48;;;8.57;;
22652;SDS011;11493;43.344;26.226;2023-02-01T05:58:50;12.10;;;7.80;;
22652;SDS011;11493;43.344;26.226;2023-02-01T06:01:17;14.70;;;8.85;;
22652;SDS011;11493;43.344;26.226;2023-02-01T06:03:44;12.23;;;9.35;;
22652;SDS011;11493;43.344;26.226;2023-02-01T06:06:11;10.30;;;8.25;;
22652;SDS011;11493;43.344;26.226;2023-02-01T06:08:38;11.88;;;8.32;;
22652;SDS011;11493;43.344;26.226;2023-02-01T06:11:06;11.52;;;9.35;;
22652;SDS011;11493;43.344;26.226;2023-02-01T06:13:33;13.75;;;8.93;;
22652;SDS011;11493;43.344;26.226;2023-02-01T06:16:04;15.45;;;10.27;;
22652;SDS011;11493;43.344;26.226;2023-02-01T06:18:34;16.55;;;9.70;;
22652;SDS011;11493;43.344;26.226;2023-02-01T06:21:01;12.23;;;8.60;;
22652;SDS011;11493;43.344;26.226;2023-02-01T06:23:29;18.77;;;10.63;;
22652;SDS011;11493;43.344;26.226;2023-02-01T06:26:01;14.27;;;8.82;;
22652;SDS011;11493;43.344;26.226;2023-02-01T06:28:30;13.68;;;9.35;;
22652;SDS011;11493;43.344;26.226;2023-02-01T06:30:57;11.50;;;9.10;;
22652;SDS011;11493;43.344;26.226;2023-02-01T06:33:29;13.65;;;8.23;;
22652;SDS011;11493;43.344;26.226;2023-02-01T06:35:57;12.98;;;8.15;;
22652;SDS011;11493;43.344;26.226;2023-02-01T06:38:25;12.60;;;8.07;;
22652;SDS011;11493;43.344;26.226;2023-02-01T06:40:53;13.68;;;8.98;;
22652;SDS011;11493;43.344;26.226;2023-02-01T06:43:21;14.00;;;8.65;;
22652;SDS011;11493;43.344;26.226;2023-02-01T06:45:49;14.45;;;9.18;;
22652;SDS011;11493;43.344;26.226;2023-02-01T06:48:16;14.43;;;9.60;;
22652;SDS011;11493;43.344;26.226;2023-02-01T06:50:44;14.23;;;8.23;;
22652;SDS011;11493;43.344;26.226;2023-02-01T06:53:11;10.65;;;7.70;;
22652;SDS011;11493;43.344;26.226;2023-02-01T06:55:38;10.75;;;7.03;;
22652;SDS011;11493;43.344;26.226;2023-02-01T06:58:05;14.25;;;7.80;;
22652;SDS011;11493;43.344;26.226;2023-02-01T07:00:32;9.63;;;6.53;;
22652;SDS011;11493;43.344;26.226;2023-02-01T07:02:59;10.65;;;7.47;;
22652;SDS011;11493;43.344;26.226;2023-02-01T07:05:26;7.78;;;6.50;;
22652;SDS011;11493;43.344;26.226;2023-02-01T07:07:53;12.82;;;7.57;;
22652;SDS011;11493;43.344;26.226;2023-02-01T07:10:20;7.10;;;6.30;;
22652;SDS011;11493;43.344;26.226;2023-02-01T07:12:47;8.77;;;6.78;;
22652;SDS011;11493;43.344;26.226;2023-02-01T07:15:14;10.68;;;7.22;;
22652;SDS011;11493;43.344;26.226;2023-02-01T07:17:41;10.70;;;8.20;;
22652;SDS011;11493;43.344;26.226;2023-02-01T07:20:08;7.88;;;7.03;;
22652;SDS011;11493;43.344;26.226;2023-02-01T07:22:35;9.50;;;6.70;;
22652;SDS011;11493;43.344;26.226;2023-02-01T07:25:02;6.82;;;5.82;;
22652;SDS011;11493;43.344;26.226;2023-02-01T07:27:33;7.45;;;6.55;;
22652;SDS011;11493;43.344;26.226;2023-02-01T07:30:01;6.65;;;5.97;;
22652;SDS011;11493;43.344;26.226;2023-02-01T07:32:29;7.75;;;5.82;;
22652;SDS011;11493;43.344;26.226;2023-02-01T07:34:56;7.32;;;5.78;;
22652;SDS011;11493;43.344;26.226;2023-02-01T07:37:24;9.30;;;6.35;;
22652;SDS011;11493;43.344;26.226;2023-02-01T07:39:51;9.05;;;5.68;;
22652;SDS011;11493;43.344;26.226;2023-02-01T07:42:18;12.68;;;6.97;;
22652;SDS011;11493;43.344;26.226;2023-02-01T07:44:45;11.07;;;7.63;;
22652;SDS011;11493;43.344;26.226;2023-02-01T07:47:12;9.60;;;6.18;;
22652;SDS011;11493;43.344;26.226;2023-02-01T07:49:39;19.85;;;10.82;;
22652;SDS011;11493;43.344;26.226;2023-02-01T07:52:06;6.97;;;6.35;;
22652;SDS011;11493;43.344;26.226;2023-02-01T07:54:32;8.82;;;6.68;;
22652;SDS011;11493;43.344;26.226;2023-02-01T07:57:00;8.73;;;6.60;;
22652;SDS011;11493;43.344;26.226;2023-02-01T07:59:27;8.68;;;6.00;;
22652;SDS011;11493;43.344;26.226;2023-02-01T08:01:54;9.40;;;6.35;;
22652;SDS011;11493;43.344;26.226;2023-02-01T08:04:20;9.38;;;7.53;;
22652;SDS011;11493;43.344;26.226;2023-02-01T08:06:47;7.72;;;5.75;;
22652;SDS011;11493;43.344;26.226;2023-02-01T08:09:14;7.82;;;5.32;;
22652;SDS011;11493;43.344;26.226;2023-02-01T08:11:42;5.30;;;4.80;;
22652;SDS011;11493;43.344;26.226;2023-02-01T08:14:09;7.68;;;5.28;;
22652;SDS011;11493;43.344;26.226;2023-02-01T08:16:36;10.93;;;5.15;;
22652;SDS011;11493;43.344;26.226;2023-02-01T08:19:05;10.25;;;5.40;;
22652;SDS011;11493;43.344;26.226;2023-02-01T08:21:32;8.38;;;5.25;;
22652;SDS011;11493;43.344;26.226;2023-02-01T08:24:07;5.55;;;5.05;;
22652;SDS011;11493;43.344;26.226;2023-02-01T08:26:36;6.28;;;4.75;;
22652;SDS011;11493;43.344;26.226;2023-02-01T08:29:04;7.20;;;5.05;;
22652;SDS011;11493;43.344;26.226;2023-02-01T08:31:31;6.65;;;4.82;;
22652;SDS011;11493;43.344;26.226;2023-02-01T08:34:00;7.13;;;5.85;;
22652;SDS011;11493;43.344;26.226;2023-02-01T08:36:28;8.68;;;6.60;;
22652;SDS011;11493;43.344;26.226;2023-02-01T08:38:56;5.38;;;4.90;;
22652;SDS011;11493;43.344;26.226;2023-02-01T08:41:25;8.05;;;6.13;;
22652;SDS011;11493;43.344;26.226;2023-02-01T08:43:53;8.27;;;4.80;;
22652;SDS011;11493;43.344;26.226;2023-02-01T08:46:21;7.43;;;6.13;;
22652;SDS011;11493;43.344;26.226;2023-02-01T08:48:49;7.35;;;5.53;;
22652;SDS011;11493;43.344;26.226;2023-02-01T08:51:17;7.80;;;5.32;;
22652;SDS011;11493;43.344;26.226;2023-02-01T08:53:46;10.43;;;6.43;;
22652;SDS011;11493;43.344;26.226;2023-02-01T08:56:14;9.05;;;6.72;;
22652;SDS011;11493;43.344;26.226;2023-02-01T08:58:42;6.78;;;5.22;;
22652;SDS011;11493;43.344;26.226;2023-02-01T09:01:12;7.78;;;5.22;;
22652;SDS011;11493;43.344;26.226;2023-02-01T09:03:43;6.45;;;5.10;;
22652;SDS011;11493;43.344;26.226;2023-02-01T09:06:12;7.22;;;5.30;;
22652;SDS011;11493;43.344;26.226;2023-02-01T09:08:40;6.75;;;4.57;;
22652;SDS011;11493;43.344;26.226;2023-02-01T09:11:11;8.80;;;5.40;;
22652;SDS011;11493;43.344;26.226;2023-02-01T09:13:39;6.60;;;4.60;;
22652;SDS011;11493;43.344;26.226;2023-02-01T09:16:06;11.80;;;5.70;;
22652;SDS011;11493;43.344;26.226;2023-02-01T09:18:34;6.88;;;4.50;;
22652;SDS011;11493;43.344;26.226;2023-02-01T09:21:07;6.93;;;5.82;;
22652;SDS011;11493;43.344;26.226;2023-02-01T09:23:34;10.15;;;5.68;;
22652;SDS011;11493;43.344;26.226;2023-02-01T09:26:02;10.45;;;5.13;;
22652;SDS011;11493;43.344;26.226;2023-02-01T09:28:30;7.07;;;4.57;;
22652;SDS011;11493;43.344;26.226;2023-02-01T09:30:58;4.35;;;3.80;;
22652;SDS011;11493;43.344;26.226;2023-02-01T09:33:27;5.05;;;4.32;;
22652;SDS011;11493;43.344;26.226;2023-02-01T09:35:56;8.15;;;4.63;;
22652;SDS011;11493;43.344;26.226;2023-02-01T09:38:24;9.05;;;6.22;;
22652;SDS011;11493;43.344;26.226;2023-02-01T09:40:52;22.52;;;10.65;;
22652;SDS011;11493;43.344;26.226;2023-02-01T09:43:35;9.15;;;7.00;;
22652;SDS011;11493;43.344;26.226;2023-02-01T09:46:29;12.07;;;6.93;;
22652;SDS011;11493;43.344;26.226;2023-02-01T09:49:11;7.70;;;5.75;;
22652;SDS011;11493;43.344;26.226;2023-02-01T09:51:45;6.63;;;3.83;;
22652;SDS011;11493;43.344;26.226;2023-02-01T09:54:19;11.77;;;4.65;;
22652;SDS011;11493;43.344;26.226;2023-02-01T09:56:51;11.77;;;4.75;;
22652;SDS011;11493;43.344;26.226;2023-02-01T09:59:23;7.97;;;5.55;;
22652;SDS011;11493;43.344;26.226;2023-02-01T10:01:59;7.03;;;5.82;;
22652;SDS011;11493;43.344;26.226;2023-02-01T10:04:28;15.63;;;7.38;;
22652;SDS011;11493;43.344;26.226;2023-02-01T10:12:46;16.52;;;8.48;;
22652;SDS011;11493;43.344;26.226;2023-02-01T10:18:13;5.93;;;4.05;;
22652;SDS011;11493;43.344;26.226;2023-02-01T10:23:38;7.10;;;2.80;;
22652;SDS011;11493;43.344;26.226;2023-02-01T10:26:19;4.00;;;2.78;;
22652;SDS011;11493;43.344;26.226;2023-02-01T10:28:50;7.85;;;3.85;;
22652;SDS011;11493;43.344;26.226;2023-02-01T10:31:26;4.50;;;3.30;;
22652;SDS011;11493;43.344;26.226;2023-02-01T10:33:59;9.85;;;2.83;;
22652;SDS011;11493;43.344;26.226;2023-02-01T10:36:40;4.10;;;2.78;;
22652;SDS011;11493;43.344;26.226;2023-02-01T10:39:08;5.68;;;3.85;;
22652;SDS011;11493;43.344;26.226;2023-02-01T10:41:38;5.30;;;2.78;;
22652;SDS011;11493;43.344;26.226;2023-02-01T10:44:14;7.85;;;3.50;;
22652;SDS011;11493;43.344;26.226;2023-02-01T10:46:43;4.60;;;3.33;;
22652;SDS011;11493;43.344;26.226;2023-02-01T10:49:15;5.07;;;2.85;;
22652;SDS011;11493;43.344;26.226;2023-02-01T10:51:47;6.50;;;3.63;;
22652;SDS011;11493;43.344;26.226;2023-02-01T10:54:22;5.30;;;2.88;;
22652;SDS011;11493;43.344;26.226;2023-02-01T10:57:25;5.28;;;2.38;;
22652;SDS011;11493;43.344;26.226;2023-02-01T10:59:55;5.75;;;3.10;;
22652;SDS011;11493;43.344;26.226;2023-02-01T11:02:26;5.35;;;3.20;;
22652;SDS011;11493;43.344;26.226;2023-02-01T11:05:01;5.20;;;3.05;;
22652;SDS011;11493;43.344;26.226;2023-02-01T11:07:29;6.03;;;2.92;;
22652;SDS011;11493;43.344;26.226;2023-02-01T11:09:57;4.00;;;3.15;;
22652;SDS011;11493;43.344;26.226;2023-02-01T11:12:27;11.82;;;3.80;;
22652;SDS011;11493;43.344;26.226;2023-02-01T11:14:58;8.43;;;3.28;;
22652;SDS011;11493;43.344;26.226;2023-02-01T11:17:33;9.88;;;4.63;;
22652;SDS011;11493;43.344;26.226;2023-02-01T11:20:14;8.95;;;5.15;;
22652;SDS011;11493;43.344;26.226;2023-02-01T11:22:45;12.70;;;6.88;;
22652;SDS011;11493;43.344;26.226;2023-02-01T11:25:20;8.18;;;6.85;;
22652;SDS011;11493;43.344;26.226;2023-02-01T11:27:49;6.90;;;4.30;;
22652;SDS011;11493;43.344;26.226;2023-02-01T11:30:55;6.72;;;4.78;;
22652;SDS011;11493;43.344;26.226;2023-02-01T11:33:18;4.45;;;2.67;;
22652;SDS011;11493;43.344;26.226;2023-02-01T11:35:47;7.28;;;3.50;;
22652;SDS011;11493;43.344;26.226;2023-02-01T11:38:23;5.55;;;2.92;;
22652;SDS011;11493;43.344;26.226;2023-02-01T11:40:51;2.95;;;2.30;;
22652;SDS011;11493;43.344;26.226;2023-02-01T11:43:25;5.40;;;3.65;;
22652;SDS011;11493;43.344;26.226;2023-02-01T11:45:58;5.88;;;3.67;;
22652;SDS011;11493;43.344;26.226;2023-02-01T11:48:31;6.65;;;4.68;;
22652;SDS011;11493;43.344;26.226;2023-02-01T11:51:19;4.93;;;2.95;;
22652;SDS011;11493;43.344;26.226;2023-02-01T12:16:53;6.68;;;3.35;;
22652;SDS011;11493;43.344;26.226;2023-02-01T12:22:44;11.00;;;5.50;;
22652;SDS011;11493;43.344;26.226;2023-02-01T12:25:45;11.68;;;5.47;;
22652;SDS011;11493;43.344;26.226;2023-02-01T12:36:34;9.13;;;4.88;;
22652;SDS011;11493;43.344;26.226;2023-02-01T12:41:58;18.98;;;9.25;;
22652;SDS011;11493;43.344;26.226;2023-02-01T12:45:14;8.98;;;5.18;;
22652;SDS011;11493;43.344;26.226;2023-02-01T12:52:49;10.77;;;6.13;;
22652;SDS011;11493;43.344;26.226;2023-02-01T13:01:00;5.10;;;2.65;;
22652;SDS011;11493;43.344;26.226;2023-02-01T13:03:37;6.22;;;2.88;;
22652;SDS011;11493;43.344;26.226;2023-02-01T13:06:13;6.20;;;3.30;;
22652;SDS011;11493;43.344;26.226;2023-02-01T13:08:51;5.45;;;2.58;;
22652;SDS011;11493;43.344;26.226;2023-02-01T13:11:31;6.13;;;3.35;;
22652;SDS011;11493;43.344;26.226;2023-02-01T13:17:19;7.43;;;3.38;;
22652;SDS011;11493;43.344;26.226;2023-02-01T13:22:36;3.47;;;2.70;;
22652;SDS011;11493;43.344;26.226;2023-02-01T13:25:12;5.30;;;2.17;;
22652;SDS011;11493;43.344;26.226;2023-02-01T13:27:42;5.72;;;3.38;;
22652;SDS011;11493;43.344;26.226;2023-02-01T13:36:17;9.88;;;2.72;;
22652;SDS011;11493;43.344;26.226;2023-02-01T13:39:02;11.68;;;3.72;;
22652;SDS011;11493;43.344;26.226;2023-02-01T13:42:02;7.80;;;2.80;;
22652;SDS011;11493;43.344;26.226;2023-02-01T13:44:39;5.40;;;3.80;;
22652;SDS011;11493;43.344;26.226;2023-02-01T13:49:50;4.90;;;3.70;;
22652;SDS011;11493;43.344;26.226;2023-02-01T13:52:37;13.52;;;7.95;;
22652;SDS011;11493;43.344;26.226;2023-02-01T13:55:15;15.30;;;4.18;;
22652;SDS011;11493;43.344;26.226;2023-02-01T13:57:52;10.30;;;4.95;;
22652;SDS011;11493;43.344;26.226;2023-02-01T14:00:46;10.10;;;5.90;;
22652;SDS011;11493;43.344;26.226;2023-02-01T14:03:17;14.60;;;6.55;;
22652;SDS011;11493;43.344;26.226;2023-02-01T14:08:35;6.82;;;3.78;;
22652;SDS011;11493;43.344;26.226;2023-02-01T14:11:04;8.77;;;4.40;;
22652;SDS011;11493;43.344;26.226;2023-02-01T14:13:39;8.75;;;4.78;;
22652;SDS011;11493;43.344;26.226;2023-02-01T14:16:11;5.78;;;3.28;;
22652;SDS011;11493;43.344;26.226;2023-02-01T14:26:20;11.90;;;5.63;;
22652;SDS011;11493;43.344;26.226;2023-02-01T14:44:52;17.90;;;8.18;;
22652;SDS011;11493;43.344;26.226;2023-02-01T14:47:27;8.23;;;4.93;;
22652;SDS011;11493;43.344;26.226;2023-02-01T14:49:57;10.27;;;4.85;;
22652;SDS011;11493;43.344;26.226;2023-02-01T14:52:34;10.30;;;4.50;;
22652;SDS011;11493;43.344;26.226;2023-02-01T14:55:14;10.73;;;6.45;;
22652;SDS011;11493;43.344;26.226;2023-02-01T14:57:52;7.95;;;6.10;;
22652;SDS011;11493;43.344;26.226;2023-02-01T15:00:23;14.18;;;8.30;;
22652;SDS011;11493;43.344;26.226;2023-02-01T15:02:54;12.43;;;7.13;;
22652;SDS011;11493;43.344;26.226;2023-02-01T15:05:28;13.00;;;8.52;;
22652;SDS011;11493;43.344;26.226;2023-02-01T15:07:58;11.70;;;8.05;;
22652;SDS011;11493;43.344;26.226;2023-02-01T15:10:31;19.45;;;11.07;;
22652;SDS011;11493;43.344;26.226;2023-02-01T15:13:11;16.55;;;10.55;;
22652;SDS011;11493;43.344;26.226;2023-02-01T15:15:58;24.08;;;12.63;;
22652;SDS011;11493;43.344;26.226;2023-02-01T15:18:46;40.67;;;22.00;;
22652;SDS011;11493;43.344;26.226;2023-02-01T15:21:20;48.65;;;26.13;;
22652;SDS011;11493;43.344;26.226;2023-02-01T15:24:14;33.05;;;19.30;;
22652;SDS011;11493;43.344;26.226;2023-02-01T15:26:49;22.20;;;12.32;;
22652;SDS011;11493;43.344;26.226;2023-02-01T15:29:18;24.83;;;12.35;;
22652;SDS011;11493;43.344;26.226;2023-02-01T15:31:50;16.77;;;12.15;;
22652;SDS011;11493;43.344;26.226;2023-02-01T15:37:43;12.60;;;5.30;;
22652;SDS011;11493;43.344;26.226;2023-02-01T15:42:46;15.40;;;11.00;;
22652;SDS011;11493;43.344;26.226;2023-02-01T15:45:19;6.28;;;4.60;;
22652;SDS011;11493;43.344;26.226;2023-02-01T15:47:48;7.63;;;6.25;;
22652;SDS011;11493;43.344;26.226;2023-02-01T15:50:20;6.63;;;5.28;;
22652;SDS011;11493;43.344;26.226;2023-02-01T15:52:51;9.38;;;7.60;;
22652;SDS011;11493;43.344;26.226;2023-02-01T15:57:52;21.00;;;12.13;;
22652;SDS011;11493;43.344;26.226;2023-02-01T16:00:30;9.52;;;8.02;;
22652;SDS011;11493;43.344;26.226;2023-02-01T16:03:20;18.95;;;10.52;;
22652;SDS011;11493;43.344;26.226;2023-02-01T16:05:57;18.63;;;10.23;;
22652;SDS011;11493;43.344;26.226;2023-02-01T16:08:27;24.05;;;15.10;;
22652;SDS011;11493;43.344;26.226;2023-02-01T16:11:30;18.83;;;11.60;;
22652;SDS011;11493;43.344;26.226;2023-02-01T16:13:54;30.13;;;15.07;;
22652;SDS011;11493;43.344;26.226;2023-02-01T16:16:21;18.75;;;12.65;;
22652;SDS011;11493;43.344;26.226;2023-02-01T16:18:48;25.13;;;13.55;;
22652;SDS011;11493;43.344;26.226;2023-02-01T16:21:14;20.05;;;10.80;;
22652;SDS011;11493;43.344;26.226;2023-02-01T16:23:41;17.40;;;11.00;;
22652;SDS011;11493;43.344;26.226;2023-02-01T16:26:08;39.40;;;18.48;;
22652;SDS011;11493;43.344;26.226;2023-02-01T16:28:36;79.28;;;29.38;;
22652;SDS011;11493;43.344;26.226;2023-02-01T16:31:03;74.18;;;29.38;;
22652;SDS011;11493;43.344;26.226;2023-02-01T16:33:30;62.28;;;26.30;;
22652;SDS011;11493;43.344;26.226;2023-02-01T16:35:57;72.22;;;30.13;;
22652;SDS011;11493;43.344;26.226;2023-02-01T16:38:26;70.43;;;32.33;;
22652;SDS011;11493;43.344;26.226;2023-02-01T16:40:53;54.15;;;25.00;;
22652;SDS011;11493;43.344;26.226;2023-02-01T16:43:21;70.60;;;34.92;;
22652;SDS011;11493;43.344;26.226;2023-02-01T16:45:51;66.57;;;29.83;;
22652;SDS011;11493;43.344;26.226;2023-02-01T16:50:53;61.20;;;31.73;;
22652;SDS011;11493;43.344;26.226;2023-02-01T16:53:27;49.30;;;27.27;;
22652;SDS011;11493;43.344;26.226;2023-02-01T16:55:59;40.20;;;21.70;;
22652;SDS011;11493;43.344;26.226;2023-02-01T16:58:27;51.28;;;25.17;;
22652;SDS011;11493;43.344;26.226;2023-02-01T17:00:54;45.47;;;25.98;;
22652;SDS011;11493;43.344;26.226;2023-02-01T17:03:21;43.40;;;26.23;;
22652;SDS011;11493;43.344;26.226;2023-02-01T17:05:49;52.45;;;26.45;;
22652;SDS011;11493;43.344;26.226;2023-02-01T17:08:22;54.28;;;30.55;;
22652;SDS011;11493;43.344;26.226;2023-02-01T17:11:00;58.45;;;30.55;;